createdAt,value
2022-12-13T00:04:37.021Z,1.70
2022-12-13T00:10:39.287Z,1.60
2022-12-13T00:16:45.907Z,1.50
2022-12-13T00:22:48.093Z,1.60
2022-12-13T00:28:51.643Z,1.40
2022-12-13T00:34:54.145Z,1.20
2022-12-13T00:40:56.257Z,1.10
2022-12-13T00:46:58.612Z,1.00
2022-12-13T00:53:01.946Z,0.90
2022-12-13T00:59:05.024Z,0.80
2022-12-13T01:05:07.735Z,0.70
2022-12-13T01:11:10.755Z,0.60
2022-12-13T01:17:13.139Z,0.50
2022-12-13T01:23:15.278Z,0.40
2022-12-13T01:29:18.368Z,0.30
2022-12-13T01:35:20.755Z,0.20
2022-12-13T01:41:27.139Z,0.20
2022-12-13T01:47:50.445Z,0.10
2022-12-13T01:53:53.937Z,0.00
2022-12-13T01:59:56.482Z,0.00
2022-12-13T02:06:13.382Z,-0.10
2022-12-13T02:12:15.875Z,-0.10
2022-12-13T02:18:48.079Z,-0.10
2022-12-13T02:25:00.511Z,-0.10
2022-12-13T02:31:12.242Z,-0.20
2022-12-13T02:37:27.927Z,-0.20
2022-12-13T02:43:37.333Z,-0.30
2022-12-13T02:49:51.956Z,-0.30
2022-12-13T02:55:54.484Z,-0.40
2022-12-13T03:02:21.701Z,-0.30
2022-12-13T03:08:56.070Z,-0.10
2022-12-13T03:15:19.476Z,0.10
2022-12-13T03:21:21.786Z,0.20
2022-12-13T03:27:23.955Z,0.30
2022-12-13T03:33:26.263Z,0.30
2022-12-13T03:39:28.594Z,0.30
2022-12-13T03:45:30.998Z,0.30
2022-12-13T03:51:33.707Z,0.30
2022-12-13T03:57:36.578Z,0.30
2022-12-13T04:03:40.845Z,0.10
2022-12-13T04:09:43.438Z,-0.20
2022-12-13T04:15:49.566Z,-0.30
2022-12-13T04:21:55.075Z,-0.40
2022-12-13T04:27:57.267Z,-0.40
2022-12-13T04:33:59.747Z,-0.30
2022-12-13T04:40:02.131Z,-0.40
2022-12-13T04:46:04.653Z,-0.60
2022-12-13T04:52:06.921Z,-0.70
2022-12-13T04:58:09.017Z,-0.80
2022-12-13T05:04:11.472Z,-0.90
2022-12-13T05:10:34.327Z,-1.00
2022-12-13T05:16:36.304Z,-1.10
2022-12-13T05:22:38.664Z,-1.10
2022-12-13T05:28:40.922Z,-1.20
2022-12-13T05:34:43.182Z,-1.10
2022-12-13T05:40:45.805Z,-1.10
2022-12-13T05:46:48.450Z,-1.00
2022-12-13T05:52:50.755Z,-0.70
2022-12-13T05:58:54.499Z,-0.50
2022-12-13T06:04:57.541Z,-0.30
2022-12-13T06:11:10.648Z,-0.20
2022-12-13T06:17:14.269Z,0.00
2022-12-13T06:23:23.855Z,0.20
2022-12-13T06:29:26.801Z,0.30
2022-12-13T06:35:30.491Z,0.20
2022-12-13T06:41:35.257Z,0.20
2022-12-13T06:47:37.712Z,0.40
2022-12-13T06:53:40.660Z,0.60
2022-12-13T06:59:43.144Z,0.70
2022-12-13T07:05:46.005Z,1.10
2022-12-13T07:11:51.881Z,1.80
2022-12-13T07:17:54.663Z,2.20
2022-12-13T07:23:56.954Z,2.10
2022-12-13T07:29:59.344Z,2.30
2022-12-13T07:36:14.357Z,2.50
2022-12-13T07:42:16.800Z,3.30
2022-12-13T07:48:19.711Z,4.80
2022-12-13T07:54:22.068Z,5.90
2022-12-13T08:00:25.261Z,4.30
2022-12-13T08:06:27.638Z,4.90
2022-12-13T08:12:29.804Z,4.50
2022-12-13T08:18:33.755Z,4.40
2022-12-13T08:24:36.121Z,4.00
2022-12-13T08:30:38.523Z,3.40
2022-12-13T08:36:41.140Z,3.40
2022-12-13T08:42:43.627Z,3.30
2022-12-13T08:48:46.101Z,2.90
2022-12-13T08:54:48.710Z,2.70
2022-12-13T09:00:51.406Z,3.20
2022-12-13T09:06:53.702Z,3.70
2022-12-13T09:13:01.743Z,4.00
2022-12-13T09:19:24.666Z,4.40
2022-12-13T09:25:27.879Z,5.20
2022-12-13T09:31:41.341Z,5.60
2022-12-13T09:37:46.067Z,6.20
2022-12-13T09:44:01.967Z,5.80
2022-12-13T09:50:15.990Z,5.90
2022-12-13T09:56:20.949Z,6.10
2022-12-13T10:02:26.056Z,5.60
2022-12-13T10:08:35.923Z,5.50
2022-12-13T10:14:46.469Z,5.20
2022-12-13T10:20:50.892Z,5.20
2022-12-13T10:26:54.327Z,5.50
2022-12-13T10:32:59.421Z,5.20
2022-12-13T10:39:02.372Z,5.60
2022-12-13T10:45:23.545Z,5.80
2022-12-13T10:51:26.541Z,5.60
2022-12-13T10:57:30.001Z,5.80
2022-12-13T11:03:34.411Z,6.10
2022-12-13T11:09:38.169Z,6.10
2022-12-13T11:15:41.889Z,6.40
2022-12-13T11:21:47.171Z,6.40
2022-12-13T11:28:26.459Z,6.80
2022-12-13T11:34:51.150Z,7.00
2022-12-13T11:41:04.357Z,6.80
2022-12-13T11:47:13.512Z,5.90
2022-12-13T11:53:19.455Z,5.60
2022-12-13T11:59:39.518Z,5.70
2022-12-13T12:05:48.133Z,5.60
2022-12-13T12:12:13.542Z,5.20
2022-12-13T12:18:26.249Z,4.90
2022-12-13T12:24:50.198Z,4.60
2022-12-13T12:31:13.854Z,4.50
2022-12-13T12:37:18.997Z,4.30
2022-12-13T12:43:21.697Z,4.30
2022-12-13T12:49:51.673Z,4.10
2022-12-13T12:56:10.434Z,4.00
2022-12-13T13:02:50.987Z,3.80
2022-12-13T13:09:04.350Z,3.60
2022-12-13T13:15:31.513Z,3.50
2022-12-13T13:21:40.691Z,3.50
2022-12-13T13:27:45.522Z,3.40
2022-12-13T13:33:51.586Z,3.20
2022-12-13T13:40:02.525Z,3.10
2022-12-13T13:46:13.759Z,3.10
2022-12-13T13:52:27.550Z,3.00
2022-12-13T13:58:54.406Z,2.90
2022-12-13T14:05:20.919Z,2.70
2022-12-13T14:11:54.197Z,2.60
2022-12-13T14:18:21.352Z,2.50
2022-12-13T14:24:40.036Z,2.40
2022-12-13T14:30:57.123Z,2.20
2022-12-13T14:37:04.369Z,2.20
2022-12-13T14:43:06.783Z,2.10
2022-12-13T14:49:12.082Z,2.00
2022-12-13T14:55:23.193Z,1.90
2022-12-13T15:01:32.249Z,1.80
2022-12-13T15:07:41.679Z,1.80
2022-12-13T15:13:47.325Z,1.70
2022-12-13T15:19:49.607Z,1.70
2022-12-13T15:26:01.240Z,1.50
2022-12-13T15:32:04.613Z,1.70
2022-12-13T15:38:28.873Z,1.60
2022-12-13T15:44:41.629Z,1.60
2022-12-13T15:50:49.016Z,1.50
2022-12-13T15:57:13.765Z,1.40
2022-12-13T16:03:19.990Z,1.40
2022-12-13T16:09:25.131Z,1.40
2022-12-13T16:15:30.467Z,1.30
2022-12-13T16:21:34.618Z,1.30
2022-12-13T16:27:37.863Z,1.20
2022-12-13T16:33:40.210Z,1.10
2022-12-13T16:39:42.255Z,1.00
2022-12-13T16:45:48.675Z,1.00
2022-12-13T16:51:51.720Z,0.90
2022-12-13T16:57:57.881Z,0.80
2022-12-13T17:04:01.667Z,0.70
2022-12-13T17:10:07.011Z,0.60
2022-12-13T17:16:09.337Z,0.60
2022-12-13T17:22:11.727Z,0.50
2022-12-13T17:28:13.703Z,0.50
2022-12-13T17:34:16.915Z,0.40
2022-12-13T17:40:19.704Z,0.40
2022-12-13T17:46:21.846Z,0.40
2022-12-13T17:52:24.289Z,0.30
2022-12-13T17:58:27.807Z,0.30
2022-12-13T18:04:30.769Z,0.20
2022-12-13T18:10:32.860Z,0.10
2022-12-13T18:16:38.712Z,0.00
2022-12-13T18:22:43.135Z,0.00
2022-12-13T18:28:49.329Z,-0.10
2022-12-13T18:34:51.259Z,-0.10
2022-12-13T18:40:57.382Z,-0.10
2022-12-13T18:46:59.706Z,-0.30
2022-12-13T18:53:01.957Z,-0.30
2022-12-13T18:59:04.418Z,-0.40
2022-12-13T19:05:06.519Z,-0.40
2022-12-13T19:11:09.083Z,-0.30
2022-12-13T19:17:11.400Z,-0.20
2022-12-13T19:23:13.437Z,-0.10
2022-12-13T19:29:16.169Z,-0.10
2022-12-13T19:35:18.566Z,0.00
2022-12-13T19:41:20.669Z,0.00
2022-12-13T19:47:23.415Z,0.00
2022-12-13T19:53:25.671Z,0.00
2022-12-13T19:59:28.209Z,-0.10
2022-12-13T20:05:30.420Z,-0.10
2022-12-13T20:11:32.673Z,-0.10
2022-12-13T20:17:36.054Z,0.10
2022-12-13T20:23:38.189Z,0.20
2022-12-13T20:29:40.365Z,0.30
2022-12-13T20:36:15.156Z,0.30
2022-12-13T20:42:08.472Z,0.40
2022-12-13T20:48:10.766Z,0.50
2022-12-13T20:54:12.860Z,0.50
2022-12-13T21:00:15.788Z,0.50
2022-12-13T21:06:17.907Z,0.50
2022-12-13T21:12:20.457Z,0.50
2022-12-13T21:18:22.637Z,0.50
2022-12-13T21:24:26.464Z,0.60
2022-12-13T21:30:28.591Z,0.40
2022-12-13T21:36:48.323Z,0.40
2022-12-13T21:42:50.405Z,0.50
2022-12-13T21:48:53.767Z,0.40
2022-12-13T21:55:15.154Z,0.60
2022-12-13T22:01:18.713Z,0.60
2022-12-13T22:07:24.066Z,0.60
2022-12-13T22:13:26.326Z,0.60
2022-12-13T22:19:28.315Z,0.70
2022-12-13T22:25:30.642Z,0.70
2022-12-13T22:31:35.980Z,0.70
2022-12-13T22:37:39.846Z,0.60
2022-12-13T22:43:42.938Z,0.50
2022-12-13T22:49:45.238Z,0.50
2022-12-13T22:55:51.288Z,0.60
2022-12-13T23:02:01.378Z,0.60
2022-12-13T23:08:04.722Z,0.70
2022-12-13T23:14:09.547Z,0.70
2022-12-13T23:20:11.878Z,0.80
2022-12-13T23:26:18.621Z,0.70
2022-12-13T23:32:20.681Z,0.70
2022-12-13T23:38:22.759Z,0.70
2022-12-13T23:44:25.148Z,0.70
2022-12-13T23:50:27.039Z,0.50
2022-12-13T23:56:29.755Z,0.30
